Time;durP1;ratioP1;P1;durP2;ratioP2;P2;SDS_P1;SDS_P2;PMS_P1;PMS_P2;Temp;Humidity;BMP_temperature;BMP_pressure;BME280_temperature;BME280_humidity;BME280_pressure;Samples;Min_cycle;Max_cycle;Signal;HPM_P1;HPM_P2
2022/09/13 03:01:21;;;;;;;26.38;17.75;;;17.40;99.90;;;;;;5646744;22;20044;-83
2022/09/13 03:03:46;;;;;;;30.98;18.25;;;17.40;99.90;;;;;;5053532;28;20376;-84
2022/09/13 03:06:20;;;;;;;26.20;17.13;;;17.40;99.90;;;;;;5055945;28;20100;-84
2022/09/13 03:08:45;;;;;;;29.75;18.27;;;17.40;99.90;;;;;;5054994;28;20083;-84
2022/09/13 03:11:38;;;;;;;28.00;16.83;;;17.40;99.90;;;;;;5053923;28;20446;-84
2022/09/13 03:14:25;;;;;;;26.77;17.55;;;17.40;99.90;;;;;;5055850;28;20040;-84
2022/09/13 03:17:02;;;;;;;28.15;14.85;;;17.50;99.90;;;;;;5055933;28;20036;-83
2022/09/13 03:19:38;;;;;;;23.52;14.95;;;17.50;99.90;;;;;;5055697;28;20040;-83
2022/09/13 03:22:30;;;;;;;24.35;15.13;;;17.40;99.90;;;;;;5054051;28;20048;-83
2022/09/13 03:25:27;;;;;;;22.10;14.70;;;17.50;99.90;;;;;;5016818;28;20179;-82
2022/09/13 03:28:12;;;;;;;21.73;14.27;;;17.50;99.90;;;;;;5054207;28;20052;-83
2022/09/13 03:30:43;;;;;;;21.08;14.05;;;17.50;99.90;;;;;;5054440;28;20060;-84
2022/09/13 03:33:51;;;;;;;22.45;14.50;;;17.50;99.90;;;;;;5055098;28;20480;-84
2022/09/13 03:36:50;;;;;;;23.27;14.27;;;17.40;99.90;;;;;;5054081;28;20040;-83
2022/09/13 03:39:28;;;;;;;20.23;13.52;;;17.50;99.90;;;;;;5048183;28;20052;-83
2022/09/13 03:41:58;;;;;;;23.88;15.40;;;17.50;99.90;;;;;;5053807;28;20041;-84
2022/09/13 03:44:27;;;;;;;24.33;14.20;;;17.50;99.90;;;;;;5053705;28;20049;-83
2022/09/13 03:46:56;;;;;;;31.38;17.13;;;17.50;99.90;;;;;;5055559;28;20041;-83
2022/09/13 03:49:25;;;;;;;27.75;15.60;;;17.50;99.90;;;;;;5053616;28;20485;-84
2022/09/13 03:51:51;;;;;;;26.35;15.05;;;17.60;99.90;;;;;;5053506;28;20051;-83
2022/09/13 03:54:21;;;;;;;23.67;14.80;;;17.60;99.90;;;;;;5053964;28;20056;-84
2022/09/13 03:57:14;;;;;;;21.67;13.43;;;17.60;99.90;;;;;;5053733;28;20045;-84
2022/09/13 03:59:45;;;;;;;30.25;15.43;;;17.60;99.90;;;;;;5053623;28;20037;-83
2022/09/13 04:02:12;;;;;;;22.70;14.00;;;17.60;99.90;;;;;;5053451;28;20037;-84
2022/09/13 04:04:39;;;;;;;26.85;15.00;;;17.60;99.90;;;;;;5053290;28;20048;-83
2022/09/13 04:07:05;;;;;;;27.33;16.08;;;17.60;99.90;;;;;;5053527;28;20053;-84
2022/09/13 04:09:30;;;;;;;25.63;15.50;;;17.60;99.90;;;;;;5054815;28;20452;-84
2022/09/13 04:11:57;;;;;;;26.30;14.35;;;17.60;99.90;;;;;;5054873;28;20065;-83
2022/09/13 04:14:25;;;;;;;14.85;9.10;;;17.60;99.90;;;;;;5053576;28;20053;-84
2022/09/13 04:16:54;;;;;;;13.98;9.10;;;17.60;99.90;;;;;;5054265;28;20041;-84
2022/09/13 04:19:20;;;;;;;14.05;8.77;;;17.60;99.90;;;;;;5053018;28;20041;-84
2022/09/13 04:21:50;;;;;;;11.73;8.05;;;17.60;99.90;;;;;;5052215;28;20041;-82
2022/09/13 04:24:17;;;;;;;12.57;6.95;;;17.60;99.90;;;;;;5053203;28;20045;-83
2022/09/13 04:26:43;;;;;;;10.77;6.43;;;17.70;99.90;;;;;;5052940;28;20067;-82
2022/09/13 04:29:10;;;;;;;11.60;5.47;;;17.70;99.90;;;;;;5052778;28;20124;-83
2022/09/13 04:31:36;;;;;;;10.88;5.43;;;17.60;99.90;;;;;;5053318;28;20488;-83
2022/09/13 04:34:02;;;;;;;10.95;6.55;;;17.60;99.90;;;;;;5054306;28;20041;-83
2022/09/13 04:36:28;;;;;;;9.35;5.63;;;17.60;99.90;;;;;;5052759;28;20049;-85
2022/09/13 04:38:53;;;;;;;11.15;5.47;;;17.60;99.90;;;;;;5054520;28;20039;-85
2022/09/13 04:41:19;;;;;;;6.82;4.90;;;17.50;99.90;;;;;;5052913;28;20068;-84
2022/09/13 04:43:49;;;;;;;11.70;5.63;;;17.60;99.90;;;;;;5052975;28;20045;-82
2022/09/13 04:46:15;;;;;;;7.60;4.75;;;17.50;99.90;;;;;;5052893;28;20062;-82
2022/09/13 04:48:41;;;;;;;8.52;4.05;;;17.50;99.90;;;;;;5052685;28;20048;-81
2022/09/13 04:51:07;;;;;;;8.35;4.07;;;17.50;99.90;;;;;;5052798;28;20056;-83
2022/09/13 04:53:33;;;;;;;5.00;3.13;;;17.50;99.90;;;;;;5052638;28;20440;-82
2022/09/13 04:56:03;;;;;;;7.90;3.80;;;17.40;99.90;;;;;;5052828;28;20495;-82
2022/09/13 04:58:30;;;;;;;6.65;4.05;;;17.40;99.90;;;;;;5053768;28;20365;-83
2022/09/13 05:01:07;;;;;;;8.05;3.70;;;17.40;99.90;;;;;;5052356;28;20041;-82
2022/09/13 05:03:34;;;;;;;10.25;3.58;;;17.40;99.90;;;;;;5052546;28;20044;-83
2022/09/13 05:06:08;;;;;;;4.18;2.80;;;17.40;99.90;;;;;;5052883;28;20480;-85
2022/09/13 05:08:35;;;;;;;6.30;2.88;;;17.40;99.90;;;;;;5053676;28;20108;-85
2022/09/13 05:11:01;;;;;;;7.18;3.10;;;17.30;99.90;;;;;;5052460;28;20522;-84
2022/09/13 05:13:27;;;;;;;8.20;3.35;;;17.30;99.90;;;;;;5052244;28;20503;-84
2022/09/13 05:15:57;;;;;;;6.18;3.08;;;17.30;99.90;;;;;;5053177;28;20045;-82
2022/09/13 05:18:27;;;;;;;4.95;3.00;;;17.30;99.90;;;;;;5052235;28;20041;-82
2022/09/13 05:20:58;;;;;;;6.55;3.00;;;17.30;99.90;;;;;;5052111;28;20116;-82
2022/09/13 05:23:25;;;;;;;10.50;3.45;;;17.30;99.90;;;;;;5052414;28;20562;-82
2022/09/13 05:25:59;;;;;;;9.15;3.70;;;17.20;99.90;;;;;;5052452;28;20041;-81
2022/09/13 05:28:30;;;;;;;9.55;3.70;;;17.20;99.90;;;;;;5052582;28;20431;-82
2022/09/13 05:30:56;;;;;;;6.32;3.53;;;17.20;99.90;;;;;;5052267;28;20051;-82
2022/09/13 05:33:21;;;;;;;10.75;3.90;;;17.20;99.90;;;;;;5054222;28;20132;-83
2022/09/13 05:35:47;;;;;;;7.53;3.50;;;17.20;99.90;;;;;;5057914;28;20039;-82
2022/09/13 05:38:13;;;;;;;6.25;3.10;;;17.20;99.90;;;;;;5060040;28;20436;-84
2022/09/13 05:40:38;;;;;;;6.65;3.30;;;17.20;99.90;;;;;;5056537;28;20041;-82
2022/09/13 05:43:04;;;;;;;6.50;2.85;;;17.20;99.90;;;;;;5056694;28;20049;-82
2022/09/13 05:45:30;;;;;;;6.45;3.40;;;17.10;99.90;;;;;;5056072;28;20036;-82
2022/09/13 05:47:55;;;;;;;10.20;3.80;;;17.10;99.90;;;;;;5056533;28;20041;-82
2022/09/13 05:50:21;;;;;;;6.00;3.53;;;17.10;99.90;;;;;;5039949;28;20041;-81
2022/09/13 05:52:54;;;;;;;7.63;3.88;;;17.10;99.90;;;;;;5055747;28;20480;-80
2022/09/13 05:55:20;;;;;;;7.82;3.30;;;17.10;99.90;;;;;;5055724;28;20036;-82
2022/09/13 05:57:47;;;;;;;7.45;3.35;;;17.10;99.90;;;;;;5039226;28;20041;-83
2022/09/13 06:00:13;;;;;;;4.82;3.10;;;17.10;99.90;;;;;;5055884;28;20059;-84
2022/09/13 06:02:40;;;;;;;6.63;3.40;;;17.10;99.90;;;;;;5055568;28;20041;-82
2022/09/13 06:05:06;;;;;;;8.18;3.08;;;17.10;99.90;;;;;;5055448;28;20127;-81
2022/09/13 06:07:32;;;;;;;11.05;3.33;;;17.10;99.90;;;;;;5055335;28;20484;-81
2022/09/13 06:09:58;;;;;;;5.90;3.00;;;17.10;99.90;;;;;;5055489;28;20033;-81
2022/09/13 06:12:23;;;;;;;6.25;3.55;;;17.10;99.90;;;;;;5055243;28;20049;-82
2022/09/13 06:14:49;;;;;;;9.05;3.50;;;17.10;99.90;;;;;;5057188;28;20036;-81
2022/09/13 06:17:15;;;;;;;17.25;4.13;;;17.10;99.90;;;;;;5056295;28;20435;-84
2022/09/13 06:19:40;;;;;;;10.73;4.13;;;17.10;99.90;;;;;;5056288;28;20033;-83
2022/09/13 06:22:06;;;;;;;10.00;4.28;;;17.10;99.90;;;;;;5055332;28;20040;-83
2022/09/13 06:24:32;;;;;;;10.63;4.85;;;17.10;99.90;;;;;;5055333;28;20048;-84
2022/09/13 06:26:57;;;;;;;7.88;4.18;;;17.10;99.90;;;;;;5055139;28;20516;-82
2022/09/13 06:29:23;;;;;;;11.68;4.88;;;17.20;99.90;;;;;;5054863;28;20041;-82
2022/09/13 06:31:49;;;;;;;10.75;5.13;;;17.20;99.90;;;;;;5054833;28;20095;-81
2022/09/13 06:34:26;;;;;;;9.93;4.50;;;17.20;99.90;;;;;;5055415;28;20052;-86
2022/09/13 06:36:51;;;;;;;12.40;5.32;;;17.20;99.90;;;;;;5054354;28;20439;-81
2022/09/13 06:39:17;;;;;;;11.70;5.25;;;17.20;99.90;;;;;;5055555;28;20040;-81
2022/09/13 06:41:43;;;;;;;13.68;5.30;;;17.20;99.90;;;;;;5055149;28;20040;-82
2022/09/13 06:44:08;;;;;;;9.85;4.80;;;17.20;99.90;;;;;;5054947;28;20397;-82
2022/09/13 06:46:35;;;;;;;8.90;4.68;;;17.20;99.90;;;;;;5055380;28;20428;-82
2022/09/13 06:49:04;;;;;;;9.27;5.30;;;17.30;99.90;;;;;;5055542;28;20052;-82
2022/09/13 06:51:30;;;;;;;12.18;4.32;;;17.20;99.90;;;;;;5055068;28;20049;-82
2022/09/13 06:53:55;;;;;;;8.77;3.97;;;17.20;99.90;;;;;;5055220;28;20041;-82
2022/09/13 06:56:23;;;;;;;16.30;4.43;;;17.20;99.90;;;;;;5055115;28;20043;-83
2022/09/13 06:58:51;;;;;;;7.85;3.45;;;17.30;99.90;;;;;;5054792;28;20080;-81
2022/09/13 07:01:29;;;;;;;11.23;3.50;;;17.30;99.90;;;;;;5054878;28;20041;-82
2022/09/13 07:04:12;;;;;;;5.38;3.40;;;17.40;99.90;;;;;;5056695;28;20041;-82
2022/09/13 07:06:40;;;;;;;6.93;3.22;;;17.40;99.90;;;;;;5038703;28;20503;-82
2022/09/13 07:09:08;;;;;;;7.15;3.50;;;17.40;99.90;;;;;;5055020;28;20044;-81
2022/09/13 07:11:36;;;;;;;9.02;3.80;;;17.40;99.90;;;;;;5055179;28;20041;-82
2022/09/13 07:14:03;;;;;;;7.13;3.20;;;17.40;99.90;;;;;;5038666;28;20055;-82
2022/09/13 07:16:31;;;;;;;9.75;3.10;;;17.40;99.90;;;;;;5055064;28;20041;-81
2022/09/13 07:18:59;;;;;;;7.13;2.60;;;17.50;99.90;;;;;;5054756;28;20095;-82
2022/09/13 07:21:26;;;;;;;5.40;2.60;;;17.50;99.90;;;;;;5054892;28;20041;-82
2022/09/13 07:23:54;;;;;;;7.55;2.63;;;17.40;99.90;;;;;;5055320;28;20067;-81
2022/09/13 07:26:20;;;;;;;5.63;2.58;;;17.40;99.90;;;;;;5054927;28;20446;-82
2022/09/13 07:28:48;;;;;;;9.63;2.50;;;17.50;99.90;;;;;;5056655;28;20044;-82
2022/09/13 07:31:19;;;;;;;8.80;2.70;;;17.50;99.90;;;;;;5054701;28;20045;-84
2022/09/13 07:33:45;;;;;;;7.20;2.25;;;17.50;99.90;;;;;;5037869;28;20488;-82
2022/09/13 07:36:12;;;;;;;10.15;2.83;;;17.60;99.90;;;;;;5055625;28;20033;-82
2022/09/13 07:38:40;;;;;;;7.90;1.80;;;17.60;99.90;;;;;;5054142;28;20048;-82
2022/09/13 07:41:08;;;;;;;6.90;1.63;;;17.60;99.90;;;;;;5053824;28;20076;-81
2022/09/13 07:43:35;;;;;;;9.40;1.60;;;17.60;99.90;;;;;;5051553;28;20083;-83
2022/09/13 07:46:10;;;;;;;6.32;1.90;;;17.70;99.90;;;;;;5052199;28;20037;-82
2022/09/13 07:48:38;;;;;;;5.47;1.38;;;17.70;99.90;;;;;;5053590;28;20396;-76
2022/09/13 07:51:09;;;;;;;5.47;1.40;;;17.70;99.90;;;;;;5053722;28;20063;-79
2022/09/13 07:53:36;;;;;;;7.05;1.40;;;17.80;99.90;;;;;;5053138;28;20135;-79
2022/09/13 07:56:04;;;;;;;6.78;1.30;;;17.80;99.90;;;;;;5052405;28;20039;-79
2022/09/13 07:58:32;;;;;;;6.63;1.58;;;17.80;99.90;;;;;;5054186;28;20076;-84
2022/09/13 08:01:22;;;;;;;6.03;1.30;;;17.90;99.90;;;;;;5037746;28;20033;-84
2022/09/13 08:04:02;;;;;;;6.28;1.65;;;17.90;99.90;;;;;;5024773;28;20107;-84
2022/09/13 08:06:30;;;;;;;3.45;1.15;;;17.90;99.90;;;;;;5033828;28;20037;-83
2022/09/13 08:08:56;;;;;;;6.97;1.92;;;18.00;99.90;;;;;;5035909;28;20036;-84
2022/09/13 08:11:26;;;;;;;11.60;1.45;;;18.00;99.90;;;;;;5035642;28;20078;-83
2022/09/13 08:13:52;;;;;;;5.07;1.40;;;18.00;99.90;;;;;;5034906;28;20504;-84
2022/09/13 08:16:20;;;;;;;5.43;1.23;;;18.00;99.90;;;;;;5034289;28;20045;-83
2022/09/13 08:18:48;;;;;;;10.95;1.60;;;18.10;99.90;;;;;;5035414;28;20108;-83
2022/09/13 08:21:14;;;;;;;9.38;1.08;;;18.00;99.90;;;;;;5033999;28;20084;-84
2022/09/13 08:23:41;;;;;;;3.85;0.98;;;18.00;99.90;;;;;;5035417;28;20116;-83
2022/09/13 08:26:07;;;;;;;9.63;1.05;;;18.00;99.90;;;;;;5034360;28;20049;-84
2022/09/13 08:28:35;;;;;;;5.28;1.10;;;18.00;99.90;;;;;;5035544;28;20076;-83
2022/09/13 08:31:09;;;;;;;6.80;1.30;;;18.00;99.90;;;;;;5034191;28;20038;-84
2022/09/13 08:33:35;;;;;;;5.50;1.02;;;18.10;99.90;;;;;;5034773;28;20046;-84
2022/09/13 08:36:01;;;;;;;4.97;0.90;;;18.20;99.90;;;;;;5033119;28;20500;-85
2022/09/13 08:38:28;;;;;;;4.68;1.00;;;18.20;99.90;;;;;;5034954;28;20485;-84
2022/09/13 08:41:14;;;;;;;4.90;1.13;;;18.20;99.90;;;;;;5035959;28;20056;-83
2022/09/13 08:44:08;;;;;;;3.53;1.00;;;18.20;99.90;;;;;;5033317;28;20041;-82
2022/09/13 08:46:39;;;;;;;2.88;0.68;;;18.10;99.90;;;;;;5035309;28;20416;-82
2022/09/13 08:49:16;;;;;;;5.63;0.90;;;18.20;99.90;;;;;;5035615;28;20049;-84
2022/09/13 08:51:50;;;;;;;3.85;0.75;;;18.20;99.90;;;;;;5033864;28;20399;-83
2022/09/13 08:54:18;;;;;;;5.85;0.90;;;18.40;99.90;;;;;;5033811;28;20049;-85
2022/09/13 08:56:53;;;;;;;6.93;1.02;;;18.60;99.90;;;;;;5033192;28;20114;-83
2022/09/13 08:59:45;;;;;;;3.92;0.90;;;18.70;99.90;;;;;;5035783;28;20404;-84
2022/09/13 09:02:34;;;;;;;3.28;0.80;;;18.70;99.90;;;;;;5034904;28;20030;-83
2022/09/13 09:05:06;;;;;;;4.07;0.88;;;18.80;99.90;;;;;;5033891;28;20496;-82
2022/09/13 09:07:41;;;;;;;2.55;0.95;;;18.90;99.90;;;;;;5017221;28;20042;-84
2022/09/13 09:10:16;;;;;;;3.95;0.70;;;19.00;99.90;;;;;;5033747;28;20095;-83
2022/09/13 09:12:44;;;;;;;;;;;19.10;99.90;;;;;;5033666;28;20056;-83
2022/09/13 09:15:32;;;;;;;3.55;1.00;;;19.20;99.90;;;;;;5034020;28;19940;-82
2022/09/13 09:18:24;;;;;;;3.33;1.15;;;19.30;99.90;;;;;;5035075;28;20392;-82
2022/09/13 09:20:55;;;;;;;4.72;0.80;;;19.50;99.90;;;;;;5033146;28;20461;-84
2022/09/13 09:23:23;;;;;;;6.53;1.05;;;19.60;99.90;;;;;;5033161;28;20045;-82
2022/09/13 09:26:14;;;;;;;5.10;1.00;;;19.70;99.90;;;;;;5033870;28;20044;-85
2022/09/13 09:28:40;;;;;;;4.80;1.35;;;19.60;99.90;;;;;;5033855;28;20045;-83
2022/09/13 09:31:18;;;;;;;4.28;0.80;;;19.50;99.90;;;;;;5034191;28;20041;-83
2022/09/13 09:34:24;;;;;;;3.63;0.70;;;19.50;99.90;;;;;;5033147;28;20045;-83
2022/09/13 09:36:58;;;;;;;5.18;1.13;;;19.60;99.90;;;;;;5033944;28;20046;-83
2022/09/13 09:39:28;;;;;;;7.30;0.90;;;19.60;99.90;;;;;;5032727;28;20041;-84
2022/09/13 09:41:56;;;;;;;3.65;0.70;;;19.70;99.90;;;;;;5015846;28;20045;-83
2022/09/13 09:44:30;;;;;;;5.88;0.85;;;19.70;99.90;;;;;;5033403;28;20079;-81
2022/09/13 09:47:04;;;;;;;6.07;0.85;;;19.80;99.90;;;;;;5033860;28;20111;-83
2022/09/13 09:52:27;;;;;;;5.22;0.88;;;19.90;99.90;;;;;;5033356;28;20041;-82
2022/09/13 09:55:01;;;;;;;7.38;1.05;;;20.10;99.90;;;;;;5033283;28;20038;-82
2022/09/13 09:58:07;;;;;;;4.25;0.80;;;20.10;99.90;;;;;;5032003;28;20509;-81
2022/09/13 10:00:35;;;;;;;6.85;0.90;;;19.80;99.90;;;;;;4956094;28;20078;-83
2022/09/13 10:03:04;;;;;;;8.27;1.20;;;19.60;99.90;;;;;;5020154;28;20053;-83
2022/09/13 10:05:33;;;;;;;6.43;0.80;;;19.60;99.90;;;;;;5032922;28;20033;-83
2022/09/13 10:08:05;;;;;;;3.67;0.65;;;19.80;99.90;;;;;;5046761;28;20063;-83
2022/09/13 10:10:51;;;;;;;3.13;0.70;;;20.00;99.90;;;;;;5052937;28;20493;-82
2022/09/13 10:13:21;;;;;;;5.18;1.10;;;20.20;99.90;;;;;;5053533;28;20048;-82
2022/09/13 10:16:04;;;;;;;4.10;0.80;;;20.20;99.90;;;;;;5053097;28;20115;-83
2022/09/13 10:18:32;;;;;;;4.90;0.88;;;20.20;99.90;;;;;;5053253;28;20045;-83
2022/09/13 10:21:16;;;;;;;3.22;0.70;;;20.40;99.90;;;;;;5055805;28;20037;-83
2022/09/13 10:23:43;;;;;;;3.72;0.70;;;20.30;99.90;;;;;;5055331;28;20036;-81
2022/09/13 10:26:15;;;;;;;2.97;0.70;;;20.20;99.90;;;;;;5057115;28;20037;-83
2022/09/13 10:28:53;;;;;;;7.90;0.88;;;20.20;99.90;;;;;;5056680;28;20044;-82
2022/09/13 10:31:26;;;;;;;6.30;0.80;;;20.40;99.90;;;;;;5056657;28;20048;-82
2022/09/13 10:34:01;;;;;;;6.43;1.02;;;20.40;99.90;;;;;;5056227;28;20041;-83
2022/09/13 10:36:35;;;;;;;5.93;1.02;;;20.60;99.90;;;;;;5056716;28;20041;-82
2022/09/13 10:39:04;;;;;;;4.65;0.90;;;20.70;99.90;;;;;;5055038;28;20051;-84
2022/09/13 10:41:34;;;;;;;6.95;0.80;;;20.90;99.90;;;;;;5055267;28;20056;-84
2022/09/13 10:44:02;;;;;;;5.82;0.82;;;21.10;99.90;;;;;;5056161;28;20503;-81
2022/09/13 10:46:35;;;;;;;3.78;0.90;;;21.20;99.90;;;;;;5056239;28;20044;-83
2022/09/13 10:49:01;;;;;;;6.45;0.85;;;21.20;99.90;;;;;;5056137;28;20040;-82
2022/09/13 10:51:33;;;;;;;3.42;0.65;;;21.30;99.90;;;;;;5056142;28;20102;-81
2022/09/13 10:54:22;;;;;;;4.05;0.82;;;21.20;99.90;;;;;;5056733;28;20044;-83
2022/09/13 10:56:48;;;;;;;10.40;1.02;;;21.10;99.90;;;;;;5056198;28;20045;-81
2022/09/13 10:59:29;;;;;;;3.22;0.77;;;21.20;99.90;;;;;;5054437;28;20385;-83
2022/09/13 11:02:14;;;;;;;4.07;1.02;;;21.20;99.90;;;;;;5055860;28;20110;-82
2022/09/13 11:05:12;;;;;;;6.28;0.98;;;21.10;99.90;;;;;;5054848;28;20053;-82
2022/09/13 11:07:47;;;;;;;4.90;0.90;;;21.20;99.90;;;;;;5027661;28;20089;-83
2022/09/13 11:10:34;;;;;;;2.95;0.70;;;21.30;99.90;;;;;;5038237;28;20408;-83
2022/09/13 11:13:17;;;;;;;4.20;0.80;;;21.30;99.90;;;;;;5054791;28;20100;-82
2022/09/13 11:16:09;;;;;;;4.35;0.77;;;21.40;99.90;;;;;;5055800;28;20045;-80
2022/09/13 11:18:34;;;;;;;4.75;0.77;;;21.40;99.90;;;;;;5043221;28;20053;-80
2022/09/13 11:21:38;;;;;;;6.60;1.00;;;21.50;99.90;;;;;;5060445;28;20512;-79
2022/09/13 11:24:33;;;;;;;4.00;0.80;;;21.50;99.90;;;;;;5056696;28;20041;-84
2022/09/13 11:27:28;;;;;;;5.20;1.23;;;21.60;99.90;;;;;;5026058;28;20045;-82
2022/09/13 11:30:17;;;;;;;4.63;0.73;;;21.60;99.90;;;;;;5047046;28;20075;-83
2022/09/13 11:33:21;;;;;;;7.13;1.10;;;21.50;99.90;;;;;;4977897;28;20054;-82
2022/09/13 11:35:57;;;;;;;5.18;0.90;;;21.40;99.90;;;;;;4994150;28;20085;-85
2022/09/13 11:38:49;;;;;;;5.20;0.98;;;21.40;99.90;;;;;;4994348;28;20392;-81
2022/09/13 11:41:38;;;;;;;4.00;0.80;;;21.60;99.90;;;;;;4977356;28;20046;-82
2022/09/13 11:44:16;;;;;;;5.38;0.70;;;21.50;99.90;;;;;;4963003;28;20543;-83
2022/09/13 11:46:46;;;;;;;4.75;0.93;;;21.50;99.90;;;;;;4958007;28;20062;-82
2022/09/13 11:49:27;;;;;;;6.13;0.80;;;21.60;99.90;;;;;;4958023;28;20130;-83
2022/09/13 11:52:32;;;;;;;5.05;0.60;;;21.70;99.90;;;;;;4957870;28;20122;-81
2022/09/13 11:55:27;;;;;;;5.75;0.80;;;22.00;99.90;;;;;;4974328;28;20098;-82
2022/09/13 11:57:57;;;;;;;9.27;1.02;;;22.10;99.90;;;;;;5027166;28;20053;-81
2022/09/13 12:00:45;;;;;;;4.80;0.82;;;22.10;99.90;;;;;;5042722;28;20083;-81
2022/09/13 12:03:23;;;;;;;7.85;0.90;;;22.20;99.90;;;;;;5045412;28;20043;-82
2022/09/13 12:06:27;;;;;;;5.80;1.05;;;22.10;99.90;;;;;;5044101;28;20037;-81
2022/09/13 12:09:19;;;;;;;6.97;1.10;;;21.90;99.90;;;;;;5043715;28;20040;-80
2022/09/13 12:11:52;;;;;;;5.68;0.77;;;21.80;99.90;;;;;;5016570;28;20049;-81
2022/09/13 12:14:21;;;;;;;5.07;0.98;;;21.90;99.90;;;;;;5043734;28;20064;-81
2022/09/13 12:16:51;;;;;;;5.18;0.68;;;22.00;99.90;;;;;;5044751;28;20480;-82
2022/09/13 12:19:20;;;;;;;4.68;0.77;;;22.10;99.90;;;;;;5033086;28;20045;-80
2022/09/13 12:21:47;;;;;;;6.25;0.80;;;22.20;99.90;;;;;;5033002;28;20041;-81
2022/09/13 12:24:22;;;;;;;3.40;0.70;;;22.20;99.90;;;;;;5033146;28;20046;-81
2022/09/13 12:27:10;;;;;;;5.18;0.70;;;22.20;99.90;;;;;;5032923;28;20121;-80
2022/09/13 12:30:19;;;;;;;4.50;0.98;;;22.10;99.90;;;;;;5033169;28;20120;-83
2022/09/13 12:32:46;;;;;;;5.22;1.08;;;22.00;99.90;;;;;;4971072;28;20056;-83
2022/09/13 12:35:37;;;;;;;5.47;1.13;;;22.10;99.90;;;;;;5032855;28;20050;-83
2022/09/13 12:38:06;;;;;;;4.57;1.00;;;22.20;99.90;;;;;;5016521;28;20465;-83
2022/09/13 12:40:53;;;;;;;5.32;0.90;;;22.40;99.90;;;;;;5032765;28;20049;-83
2022/09/13 12:43:53;;;;;;;5.00;0.80;;;22.50;99.90;;;;;;5032465;28;20060;-84
2022/09/13 12:46:43;;;;;;;6.25;1.10;;;22.60;99.90;;;;;;5016906;28;20037;-83
2022/09/13 12:49:25;;;;;;;4.40;0.98;;;22.70;99.90;;;;;;5032657;28;20045;-83
2022/09/13 12:52:28;;;;;;;4.82;0.95;;;22.50;99.90;;;;;;5033978;28;20041;-83
2022/09/13 12:55:41;;;;;;;5.38;0.85;;;22.60;99.90;;;;;;5032972;28;20135;-82
2022/09/13 12:58:21;;;;;;;4.20;0.93;;;22.50;99.90;;;;;;4987767;28;20111;-83
2022/09/13 13:01:29;;;;;;;3.88;0.52;;;22.50;99.90;;;;;;5032492;28;20049;-81
2022/09/13 13:04:09;;;;;;;2.92;0.80;;;22.40;99.90;;;;;;5033552;28;20675;-82
2022/09/13 13:06:46;;;;;;;6.10;0.90;;;22.50;99.90;;;;;;5032352;28;20242;-82
2022/09/13 13:09:23;;;;;;;4.60;0.80;;;22.50;99.90;;;;;;5033653;28;20500;-83
2022/09/13 13:11:52;;;;;;;5.03;0.90;;;22.70;99.90;;;;;;5032202;28;20049;-84
2022/09/13 13:14:45;;;;;;;4.18;0.63;;;22.80;99.90;;;;;;5033966;28;20044;-83
2022/09/13 13:17:35;;;;;;;6.90;0.80;;;22.90;99.90;;;;;;5032337;28;20045;-83
2022/09/13 13:20:40;;;;;;;5.50;1.00;;;22.70;99.90;;;;;;5015774;28;20041;-83
2022/09/13 13:23:25;;;;;;;4.70;0.90;;;22.50;99.90;;;;;;5003033;28;20061;-83
2022/09/13 13:25:54;;;;;;;5.05;1.10;;;22.40;99.90;;;;;;5033462;28;20077;-82
2022/09/13 13:28:41;;;;;;;7.75;1.10;;;22.30;99.90;;;;;;5032119;28;20552;-82
2022/09/13 13:31:23;;;;;;;6.43;1.00;;;22.40;99.90;;;;;;5032504;28;20041;-81
2022/09/13 13:33:51;;;;;;;6.65;1.00;;;22.50;99.90;;;;;;5032296;28;20500;-81
2022/09/13 13:36:27;;;;;;;9.32;1.38;;;22.40;99.90;;;;;;5031903;28;20085;-80
2022/09/13 13:38:56;;;;;;;7.32;1.05;;;22.20;99.90;;;;;;5032490;28;20049;-81
2022/09/13 13:41:37;;;;;;;6.68;1.05;;;22.00;99.90;;;;;;5031856;28;20042;-82
2022/09/13 13:44:16;;;;;;;6.93;1.00;;;21.90;99.90;;;;;;5033520;28;20120;-81
2022/09/13 13:46:42;;;;;;;7.18;1.00;;;21.80;99.90;;;;;;5015297;28;20054;-82
2022/09/13 13:49:30;;;;;;;6.05;1.42;;;21.70;99.90;;;;;;5032009;28;20397;-81
2022/09/13 13:52:07;;;;;;;6.35;1.42;;;21.60;99.90;;;;;;5033332;28;20386;-82
2022/09/13 13:54:48;;;;;;;6.45;1.27;;;21.60;99.90;;;;;;5017892;28;20049;-84
2022/09/13 13:57:37;;;;;;;6.22;1.25;;;21.60;99.90;;;;;;5037754;28;20069;-81
2022/09/13 14:00:12;;;;;;;5.65;1.15;;;21.60;99.90;;;;;;5036020;28;20454;-82
2022/09/13 14:02:48;;;;;;;6.43;1.10;;;21.60;99.90;;;;;;5040068;28;20076;-82
2022/09/13 14:05:53;;;;;;;7.00;1.00;;;21.50;99.90;;;;;;5055696;28;20045;-83
2022/09/13 14:08:48;;;;;;;6.47;1.15;;;21.60;99.90;;;;;;4995309;28;20043;-83
2022/09/13 14:11:29;;;;;;;5.97;0.80;;;21.60;99.90;;;;;;4979812;28;20089;-83
2022/09/13 14:14:13;;;;;;;5.85;1.05;;;21.60;99.90;;;;;;5037857;28;20064;-82
2022/09/13 14:16:53;;;;;;;4.40;0.88;;;21.50;99.90;;;;;;5055545;28;20124;-82
2022/09/13 14:19:23;;;;;;;7.28;1.10;;;21.60;99.90;;;;;;5056308;28;20037;-83
2022/09/13 14:22:13;;;;;;;8.38;1.20;;;21.60;99.90;;;;;;5038640;28;20139;-82
2022/09/13 14:24:49;;;;;;;5.68;0.93;;;21.60;99.90;;;;;;5055329;28;20076;-83
2022/09/13 14:27:19;;;;;;;4.43;1.02;;;21.50;99.90;;;;;;5029453;28;20485;-82
2022/09/13 14:29:53;;;;;;;5.85;0.90;;;21.50;99.90;;;;;;5046588;28;20102;-83
2022/09/13 14:32:22;;;;;;;7.25;1.30;;;21.40;99.90;;;;;;5045486;28;20119;-81
2022/09/13 14:35:20;;;;;;;6.40;0.90;;;21.40;99.90;;;;;;5041007;28;20068;-82
2022/09/13 14:37:46;;;;;;;7.15;1.10;;;21.30;99.90;;;;;;5035120;28;20077;-82
2022/09/13 14:40:26;;;;;;;5.57;1.20;;;21.20;99.90;;;;;;5036372;28;20080;-82
2022/09/13 14:42:53;;;;;;;7.75;1.15;;;21.20;99.90;;;;;;5051815;28;20492;-82
2022/09/13 14:45:34;;;;;;;5.40;1.00;;;21.30;99.90;;;;;;5054840;28;20041;-82
2022/09/13 14:48:09;;;;;;;7.10;1.02;;;21.20;99.90;;;;;;5056181;28;20124;-82
2022/09/13 14:50:51;;;;;;;8.87;1.37;;;21.30;99.90;;;;;;5056330;28;20041;-83
2022/09/13 14:53:24;;;;;;;5.20;1.13;;;21.50;99.90;;;;;;5056929;28;20044;-81
2022/09/13 14:55:57;;;;;;;15.18;1.95;;;21.70;99.90;;;;;;5056422;28;20128;-83
2022/09/13 14:58:27;;;;;;;4.15;1.02;;;21.70;99.90;;;;;;5054893;28;20053;-83
2022/09/13 15:01:04;;;;;;;8.02;1.55;;;21.70;99.90;;;;;;5056105;28;20480;-82
2022/09/13 15:03:30;;;;;;;10.02;1.13;;;21.70;99.90;;;;;;5056260;28;20044;-81
2022/09/13 15:06:00;;;;;;;6.15;1.40;;;21.70;99.90;;;;;;5054226;28;20075;-83
2022/09/13 15:08:33;;;;;;;8.32;1.25;;;21.60;99.90;;;;;;5056224;28;20071;-82
2022/09/13 15:11:04;;;;;;;8.73;1.05;;;21.50;99.90;;;;;;5056132;28;20033;-82
2022/09/13 15:13:31;;;;;;;11.63;1.77;;;21.40;99.90;;;;;;5054728;28;20048;-82
2022/09/13 15:15:57;;;;;;;5.75;0.95;;;21.30;99.90;;;;;;5054540;28;20045;-82
2022/09/13 15:18:30;;;;;;;6.60;1.00;;;21.20;99.90;;;;;;5056420;28;20037;-82
2022/09/13 15:21:16;;;;;;;7.13;1.13;;;21.10;99.90;;;;;;5054723;28;20133;-83
2022/09/13 15:23:49;;;;;;;10.20;1.33;;;21.00;99.90;;;;;;5040219;28;20046;-84
2022/09/13 15:26:22;;;;;;;6.95;1.00;;;20.90;99.90;;;;;;5034397;28;20554;-80
2022/09/13 15:29:01;;;;;;;9.07;1.50;;;20.80;99.90;;;;;;5017749;28;20076;-80
2022/09/13 15:31:32;;;;;;;5.95;1.27;;;20.70;99.90;;;;;;5034192;28;20045;-80
2022/09/13 15:34:16;;;;;;;7.75;1.17;;;20.60;99.90;;;;;;5034502;28;20037;-81
2022/09/13 15:36:43;;;;;;;7.15;1.02;;;20.50;99.90;;;;;;5034038;28;20037;-82
2022/09/13 15:39:15;;;;;;;7.15;1.05;;;20.50;99.90;;;;;;5033992;28;20549;-80
2022/09/13 15:41:52;;;;;;;6.95;1.25;;;20.30;99.90;;;;;;5035269;28;20034;-81
2022/09/13 15:44:21;;;;;;;7.78;1.48;;;20.20;99.90;;;;;;5036249;28;20052;-87
2022/09/13 15:46:55;;;;;;;7.57;1.30;;;20.10;99.90;;;;;;5035490;28;20041;-81
2022/09/13 15:49:26;;;;;;;7.90;1.20;;;19.90;99.90;;;;;;5034255;28;20046;-81
2022/09/13 15:51:54;;;;;;;8.57;1.13;;;19.80;99.90;;;;;;5034031;28;20087;-80
2022/09/13 15:54:21;;;;;;;5.03;1.38;;;19.80;99.90;;;;;;5033614;28;20037;-82
2022/09/13 15:56:50;;;;;;;10.38;1.48;;;19.80;99.90;;;;;;5035085;28;20048;-81
2022/09/13 15:59:20;;;;;;;5.55;1.00;;;19.80;99.90;;;;;;5033634;28;20091;-80
2022/09/13 16:01:48;;;;;;;6.88;1.65;;;19.80;99.90;;;;;;5033213;28;20098;-80
2022/09/13 16:04:14;;;;;;;6.22;1.00;;;19.70;99.90;;;;;;5033470;28;20045;-82
2022/09/13 16:06:40;;;;;;;6.38;0.98;;;19.70;99.90;;;;;;5033383;28;20064;-81
2022/09/13 16:09:23;;;;;;;8.82;1.63;;;19.60;99.90;;;;;;5033640;28;20046;-81
2022/09/13 16:11:50;;;;;;;13.20;1.30;;;19.60;99.90;;;;;;5016945;28;20493;-81
2022/09/13 16:14:17;;;;;;;6.30;1.10;;;19.50;99.90;;;;;;5033204;28;20167;-81
2022/09/13 16:16:43;;;;;;;6.20;1.10;;;19.60;99.90;;;;;;5032495;28;20042;-80
2022/09/13 16:19:15;;;;;;;9.13;1.30;;;19.60;99.90;;;;;;5032771;28;20116;-80
2022/09/13 16:21:40;;;;;;;6.32;1.20;;;19.50;99.90;;;;;;5033193;28;20048;-80
2022/09/13 16:24:06;;;;;;;6.93;0.98;;;19.50;99.90;;;;;;5033055;28;20037;-81